Time;durP1;ratioP1;P1;durP2;ratioP2;P2;SDS_P1;SDS_P2;PMS_P1;PMS_P2;Temp;Humidity;BMP_temperature;BMP_pressure;BME280_temperature;BME280_humidity;BME280_pressure;Samples;Min_cycle;Max_cycle;Signal;HPM_P1;HPM_P2
2023/03/26 00:02:14;;;;;;;;;;;;;;;7.60;100.00;98794.19;4951694;29;19977;-78
2023/03/26 00:04:42;;;;;;;;;;;;;;;7.62;100.00;98794.81;4946157;29;19966;-78
2023/03/26 00:07:11;;;;;;;;;;;;;;;7.62;100.00;98795.66;4951080;29;20039;-78
2023/03/26 00:09:39;;;;;;;;;;;;;;;7.65;100.00;98799.75;4949337;29;19945;-78
2023/03/26 00:12:06;;;;;;;;;;;;;;;7.66;100.00;98796.94;4951492;29;19914;-78
2023/03/26 00:14:36;;;;;;;;;;;;;;;7.74;100.00;98796.13;4928290;29;19949;-77
2023/03/26 00:17:04;;;;;;;;;;;;;;;7.81;100.00;98801.53;4917469;29;20359;-79
2023/03/26 00:19:32;;;;;;;;;;;;;;;7.84;100.00;98795.09;4948523;29;19969;-78
2023/03/26 00:22:02;;;;;;;;;;;;;;;7.81;100.00;98805.00;4947948;29;19961;-78
2023/03/26 00:24:30;;;;;;;;;;;;;;;7.83;100.00;98796.94;4934188;29;19914;-78
2023/03/26 00:26:58;;;;;;;;;;;;;;;7.81;100.00;98796.28;4932510;29;19939;-78
2023/03/26 00:29:27;;;;;;;;;;;;;;;7.78;100.00;98794.81;4951991;29;20410;-78
2023/03/26 00:31:55;;;;;;;;;;;;;;;7.77;100.00;98800.22;4948943;29;19930;-78
2023/03/26 00:34:25;;;;;;;;;;;;;;;7.73;100.00;98801.53;4933944;29;19914;-78
2023/03/26 00:36:53;;;;;;;;;;;;;;;7.66;100.00;98796.94;4931177;29;20271;-78
2023/03/26 00:39:22;;;;;;;;;;;;;;;7.63;100.00;98793.84;4933483;29;19923;-78
2023/03/26 00:41:53;;;;;;;;;;;;;;;7.62;100.00;98803.53;4921896;29;20518;-78
2023/03/26 00:44:22;;;;;;;;;;;;;;;7.60;100.00;98805.50;4946948;29;20073;-78
2023/03/26 00:46:52;;;;;;;;;;;;;;;7.57;100.00;98804.03;4938629;28;19918;-78
2023/03/26 00:49:21;;;;;;;;;;;;;;;7.57;100.00;98811.09;4948364;29;20310;-78
2023/03/26 00:51:49;;;;;;;;;;;;;;;7.59;100.00;98810.94;4931227;29;19947;-78
2023/03/26 00:54:16;;;;;;;;;;;;;;;7.56;100.00;98810.25;4933138;29;19926;-78
2023/03/26 00:56:44;;;;;;;;;;;;;;;7.56;100.00;98812.09;4942201;29;19914;-78
2023/03/26 00:59:13;;;;;;;;;;;;;;;7.55;100.00;98802.53;4936216;29;19941;-78
2023/03/26 01:01:43;;;;;;;;;;;;;;;7.57;100.00;98818.97;4937444;29;20005;-78
2023/03/26 01:04:22;;;;;;;;;;;;;;;7.64;100.00;98819.16;4936576;29;19914;-78
2023/03/26 01:06:53;;;;;;;;;;;;;;;7.68;100.00;98818.66;4934251;28;20005;-78
2023/03/26 01:09:22;;;;;;;;;;;;;;;7.67;100.00;98811.75;4913089;28;19922;-78
2023/03/26 01:11:51;;;;;;;;;;;;;;;7.72;100.00;98819.16;4930264;28;19914;-78
2023/03/26 01:14:25;;;;;;;;;;;;;;;7.72;100.00;98820.94;4945150;28;19914;-78
2023/03/26 01:16:55;;;;;;;;;;;;;;;7.68;100.00;98817.81;4941632;28;19921;-79
2023/03/26 01:19:36;;;;;;;;;;;;;;;7.66;100.00;98814.56;4919999;29;20450;-78
2023/03/26 01:22:09;;;;;;;;;;;;;;;7.64;100.00;98821.78;4940249;29;19918;-78
2023/03/26 01:24:39;;;;;;;;;;;;;;;7.60;100.00;98818.66;4936284;29;20375;-78
2023/03/26 01:27:08;;;;;;;;;;;;;;;7.56;100.00;98833.13;4932775;29;20327;-79
2023/03/26 01:29:43;;;;;;;;;;;;;;;7.54;100.00;98830.66;4945842;29;19922;-78
2023/03/26 01:32:18;;;;;;;;;;;;;;;7.53;100.00;98838.72;4926824;29;19974;-78
2023/03/26 01:35:17;;;;;;;;;;;;;;;7.55;100.00;98844.59;4936967;29;19915;-78
2023/03/26 01:37:51;;;;;;;;;;;;;;;7.49;100.00;98846.09;4914547;29;20416;-78
2023/03/26 01:40:41;;;;;;;;;;;;;;;7.44;100.00;98849.22;4916509;29;19929;-78
2023/03/26 01:43:16;;;;;;;;;;;;;;;7.45;100.00;98850.84;4911199;29;20340;-78
2023/03/26 01:45:46;;;;;;;;;;;;;;;7.41;100.00;98853.97;4929211;29;19914;-78
2023/03/26 01:48:14;;;;;;;;;;;;;;;7.34;100.00;98856.44;4932657;29;20382;-78
2023/03/26 01:50:44;;;;;;;;;;;;;;;7.27;100.00;98863.31;4922764;29;19919;-78
2023/03/26 01:53:14;;;;;;;;;;;;;;;7.18;100.00;98873.81;4922261;29;20426;-78
2023/03/26 01:56:03;;;;;;;;;;;;;;;7.14;100.00;98871.66;4936673;29;19918;-78
2023/03/26 01:58:42;;;;;;;;;;;;;;;7.08;100.00;98865.28;4936428;28;20386;-78
2023/03/26 02:01:26;;;;;;;;;;;;;;;7.10;100.00;98871.19;4945774;28;19921;-78
2023/03/26 02:04:07;;;;;;;;;;;;;;;7.05;100.00;98860.34;4939805;29;19921;-78
2023/03/26 02:06:37;;;;;;;;;;;;;;;7.00;100.00;98867.88;4956787;28;19914;-78
2023/03/26 02:09:09;;;;;;;;;;;;;;;6.97;100.00;98863.75;4939315;29;20025;-78
2023/03/26 02:11:38;;;;;;;;;;;;;;;6.99;100.00;98868.88;4966987;28;20318;-78
2023/03/26 02:14:07;;;;;;;;;;;;;;;7.02;100.00;98872.00;4967168;28;20386;-78
2023/03/26 02:16:34;;;;;;;;;;;;;;;7.02;100.00;98879.03;4961126;28;19914;-78
2023/03/26 02:19:03;;;;;;;;;;;;;;;6.98;100.00;98875.06;4938580;28;20004;-78
2023/03/26 02:21:32;;;;;;;;;;;;;;;6.93;100.00;98879.00;4960275;28;20359;-78
2023/03/26 02:24:03;;;;;;;;;;;;;;;6.91;100.00;98869.66;4945709;28;19917;-78
2023/03/26 02:26:36;;;;;;;;;;;;;;;6.90;100.00;98874.09;4937356;28;19971;-78
2023/03/26 02:29:08;;;;;;;;;;;;;;;6.86;100.00;98874.56;4965450;28;19986;-78
2023/03/26 02:31:38;;;;;;;;;;;;;;;6.78;100.00;98876.19;4925609;28;19918;-78
2023/03/26 02:34:06;;;;;;;;;;;;;;;6.71;100.00;98877.78;4957856;28;19913;-77
2023/03/26 02:36:36;;;;;;;;;;;;;;;6.64;100.00;98877.59;4969831;28;19982;-78
2023/03/26 02:39:04;;;;;;;;;;;;;;;6.58;100.00;98886.09;4953871;28;19930;-77
2023/03/26 02:41:36;;;;;;;;;;;;;;;6.51;100.00;98896.41;4946412;28;19914;-78
2023/03/26 02:44:07;;;;;;;;;;;;;;;6.45;100.00;98897.84;4946910;29;19993;-78
2023/03/26 02:46:54;;;;;;;;;;;;;;;6.38;100.00;98903.88;4962270;28;19914;-78
2023/03/26 02:49:45;;;;;;;;;;;;;;;6.32;100.00;98908.75;4958715;28;19914;-78
2023/03/26 02:52:21;;;;;;;;;;;;;;;6.30;100.00;98908.13;4962207;28;19926;-78
2023/03/26 02:54:50;;;;;;;;;;;;;;;6.32;100.00;98914.00;4937398;29;19960;-78
2023/03/26 02:57:24;;;;;;;;;;;;;;;6.31;100.00;98925.50;4966371;28;19925;-77
2023/03/26 03:00:13;;;;;;;;;;;;;;;6.29;100.00;98927.44;4954991;28;19940;-78
2023/03/26 03:02:47;;;;;;;;;;;;;;;6.29;100.00;98931.88;4969058;28;19938;-77
2023/03/26 03:05:31;;;;;;;;;;;;;;;6.22;100.00;98925.59;4953817;28;19942;-78
2023/03/26 03:08:32;;;;;;;;;;;;;;;6.12;100.00;98929.13;4920454;28;19918;-78
2023/03/26 03:11:26;;;;;;;;;;;;;;;6.05;100.00;98934.16;4973264;28;19945;-78
2023/03/26 03:13:54;;;;;;;;;;;;;;;6.00;100.00;98935.56;4955695;28;19914;-77
2023/03/26 03:16:24;;;;;;;;;;;;;;;5.99;100.00;98944.44;4952341;28;20339;-78
2023/03/26 03:18:55;;;;;;;;;;;;;;;5.95;100.00;98949.16;4938938;29;19929;-78
2023/03/26 03:21:26;;;;;;;;;;;;;;;5.89;100.00;98953.19;4922385;28;19914;-77
2023/03/26 03:23:56;;;;;;;;;;;;;;;5.87;100.00;98954.31;4957409;28;20005;-78
2023/03/26 03:26:28;;;;;;;;;;;;;;;5.85;100.00;98954.47;4957606;28;19918;-77
2023/03/26 03:29:00;;;;;;;;;;;;;;;5.80;100.00;98954.91;4974860;28;19920;-78
2023/03/26 03:31:29;;;;;;;;;;;;;;;5.76;100.00;98964.06;4969878;28;19918;-78
2023/03/26 03:34:03;;;;;;;;;;;;;;;5.70;100.00;98970.72;4947358;28;19919;-78
2023/03/26 03:36:37;;;;;;;;;;;;;;;5.68;100.00;98964.81;4964674;28;19921;-78
2023/03/26 03:39:11;;;;;;;;;;;;;;;5.67;100.00;98975.47;4942667;28;19922;-78
2023/03/26 03:41:40;;;;;;;;;;;;;;;5.65;100.00;98977.38;4947003;29;19957;-78
2023/03/26 03:44:11;;;;;;;;;;;;;;;5.64;100.00;98981.81;4954565;28;20387;-78
2023/03/26 03:46:40;;;;;;;;;;;;;;;5.63;100.00;98981.94;4955956;28;19914;-78
2023/03/26 03:49:06;;;;;;;;;;;;;;;5.61;100.00;98983.88;4956050;28;19918;-77
2023/03/26 03:51:38;;;;;;;;;;;;;;;5.62;100.00;98994.25;4955185;28;19918;-78
2023/03/26 03:54:15;;;;;;;;;;;;;;;5.61;100.00;98997.00;4954996;28;19929;-78
2023/03/26 03:56:47;;;;;;;;;;;;;;;5.63;100.00;98997.69;4964411;28;19917;-78
2023/03/26 03:59:34;;;;;;;;;;;;;;;5.65;100.00;99011.47;4973400;28;19918;-78
2023/03/26 04:02:06;;;;;;;;;;;;;;;5.66;100.00;99010.50;4929630;29;19914;-77
2023/03/26 04:04:45;;;;;;;;;;;;;;;5.65;100.00;99021.97;4940746;28;19924;-78
2023/03/26 04:07:16;;;;;;;;;;;;;;;5.64;100.00;99018.50;4971778;28;19941;-78
2023/03/26 04:10:15;;;;;;;;;;;;;;;5.62;100.00;99041.44;4943754;28;19913;-78
2023/03/26 04:13:03;;;;;;;;;;;;;;;5.56;100.00;99040.22;4971821;28;19918;-78
2023/03/26 04:15:50;;;;;;;;;;;;;;;5.51;100.00;99047.69;4969946;28;19914;-78
2023/03/26 04:18:19;;;;;;;;;;;;;;;5.51;100.00;99050.28;4939342;28;19986;-78
2023/03/26 04:20:48;;;;;;;;;;;;;;;5.48;100.00;99055.84;4961491;28;19921;-78
2023/03/26 04:23:21;;;;;;;;;;;;;;;5.43;100.00;99055.47;4955598;28;20413;-78
2023/03/26 04:25:54;;;;;;;;;;;;;;;5.39;100.00;99056.72;4938413;28;19929;-78
2023/03/26 04:28:34;;;;;;;;;;;;;;;5.33;100.00;99060.75;4956019;28;19917;-78
2023/03/26 04:31:22;;;;;;;;;;;;;;;5.30;100.00;99067.06;4949603;28;19925;-78
2023/03/26 04:33:54;;;;;;;;;;;;;;;5.31;100.00;99081.84;4955778;28;19941;-78
2023/03/26 04:36:28;;;;;;;;;;;;;;;5.29;100.00;99075.91;4957286;28;20525;-78
2023/03/26 04:39:01;;;;;;;;;;;;;;;5.29;100.00;99082.94;4948495;28;19918;-78
2023/03/26 04:41:50;;;;;;;;;;;;;;;5.30;100.00;99087.22;4962789;28;19914;-78
2023/03/26 04:44:21;;;;;;;;;;;;;;;5.29;100.00;99094.25;4936016;28;19921;-78
2023/03/26 04:47:00;;;;;;;;;;;;;;;5.31;100.00;99107.22;4940609;28;19914;-78
2023/03/26 04:49:38;;;;;;;;;;;;;;;5.31;100.00;99107.22;4951737;28;19925;-78
2023/03/26 04:52:06;;;;;;;;;;;;;;;5.33;100.00;99111.38;4948269;28;19953;-78
2023/03/26 04:54:54;;;;;;;;;;;;;;;5.35;100.00;99116.47;4943583;28;19914;-78
2023/03/26 04:57:32;;;;;;;;;;;;;;;5.34;100.00;99114.78;4954733;28;19914;-78
2023/03/26 05:00:16;;;;;;;;;;;;;;;5.34;100.00;99122.66;4939247;28;19966;-78
2023/03/26 05:02:52;;;;;;;;;;;;;;;5.32;100.00;99135.91;4954691;28;19956;-78
2023/03/26 05:05:22;;;;;;;;;;;;;;;5.36;100.00;99136.44;4890355;28;20406;-78
2023/03/26 05:07:52;;;;;;;;;;;;;;;5.36;100.00;99143.47;4955001;28;20383;-77
2023/03/26 05:10:22;;;;;;;;;;;;;;;5.36;100.00;99153.94;4958448;28;19933;-78
2023/03/26 05:12:54;;;;;;;;;;;;;;;5.39;100.00;99158.91;4964715;28;19921;-78
2023/03/26 05:15:27;;;;;;;;;;;;;;;5.39;100.00;99161.53;4962003;28;19914;-78
2023/03/26 05:17:54;;;;;;;;;;;;;;;5.45;100.00;99172.28;4953104;28;20367;-78
2023/03/26 05:20:38;;;;;;;;;;;;;;;5.50;100.00;99179.69;4932667;29;19922;-78
2023/03/26 05:23:08;;;;;;;;;;;;;;;5.55;100.00;99180.09;4931331;28;20013;-78
2023/03/26 05:25:40;;;;;;;;;;;;;;;5.58;100.00;99192.94;4938383;28;19921;-79
2023/03/26 05:28:23;;;;;;;;;;;;;;;5.59;100.00;99196.34;4952389;28;20451;-78
2023/03/26 05:31:11;;;;;;;;;;;;;;;5.59;100.00;99210.28;4964642;28;20310;-78
2023/03/26 05:33:45;;;;;;;;;;;;;;;5.62;100.00;99218.84;4959894;28;19921;-78
2023/03/26 05:36:14;;;;;;;;;;;;;;;5.63;100.00;99223.97;4960022;28;19961;-78
2023/03/26 05:38:48;;;;;;;;;;;;;;;5.65;100.00;99229.88;4964277;28;19964;-78
2023/03/26 05:41:35;;;;;;;;;;;;;;;5.70;100.00;99242.56;4954811;28;20378;-78
2023/03/26 05:44:02;;;;;;;;;;;;;;;5.73;100.00;99236.19;4935333;28;20701;-78
2023/03/26 05:46:31;;;;;;;;;;;;;;;5.78;100.00;99240.03;4951470;29;19925;-78
2023/03/26 05:48:59;;;;;;;;;;;;;;;5.82;100.00;99238.81;4951097;28;20334;-78
2023/03/26 05:51:32;;;;;;;;;;;;;;;5.82;100.00;99248.47;4940298;28;20292;-78
2023/03/26 05:54:18;;;;;;;;;;;;;;;5.83;100.00;99257.97;4971737;28;19922;-78
2023/03/26 05:57:04;;;;;;;;;;;;;;;5.84;100.00;99267.50;4956522;28;20279;-78
2023/03/26 05:59:53;;;;;;;;;;;;;;;5.88;100.00;99273.28;4964022;28;20086;-78
2023/03/26 06:02:41;;;;;;;;;;;;;;;5.91;100.00;99281.69;4961538;28;19961;-78
2023/03/26 06:05:47;;;;;;;;;;;;;;;5.93;100.00;99286.78;4952166;28;20383;-78
2023/03/26 06:08:49;;;;;;;;;;;;;;;5.98;100.00;99296.84;4950913;28;20360;-78
2023/03/26 06:11:18;;;;;;;;;;;;;;;6.03;100.00;99302.50;4928816;29;19914;-78
2023/03/26 06:13:47;;;;;;;;;;;;;;;6.07;100.00;99299.47;4950524;28;19914;-78
2023/03/26 06:16:16;;;;;;;;;;;;;;;6.09;100.00;99307.19;4948333;28;19914;-78
2023/03/26 06:19:02;;;;;;;;;;;;;;;6.13;100.00;99318.25;4949200;28;19918;-78
2023/03/26 06:21:52;;;;;;;;;;;;;;;6.20;100.00;99330.66;4943026;28;19921;-78
2023/03/26 06:24:27;;;;;;;;;;;;;;;6.23;100.00;99337.41;4946843;28;19922;-78
2023/03/26 06:27:02;;;;;;;;;;;;;;;6.26;100.00;99344.97;4969982;28;20319;-78
2023/03/26 06:29:56;;;;;;;;;;;;;;;6.31;100.00;99355.88;4963029;28;19918;-78
2023/03/26 06:32:53;;;;;;;;;;;;;;;6.35;100.00;99361.69;4963457;28;19922;-78
2023/03/26 06:35:25;;;;;;;;;;;;;;;6.40;100.00;99363.88;4954953;28;20004;-78
2023/03/26 06:37:55;;;;;;;;;;;;;;;6.42;100.00;99365.38;4950717;28;19957;-78
2023/03/26 06:40:25;;;;;;;;;;;;;;;6.45;100.00;99380.84;4943569;28;20009;-78
2023/03/26 06:43:15;;;;;;;;;;;;;;;6.48;100.00;99392.03;4958821;28;20366;-78
2023/03/26 06:45:58;;;;;;;;;;;;;;;6.50;100.00;99384.84;4941993;28;19922;-78
2023/03/26 06:48:39;;;;;;;;;;;;;;;6.52;100.00;99391.59;4958630;28;19914;-78
2023/03/26 06:51:38;;;;;;;;;;;;;;;6.58;100.00;99388.38;4966678;28;19945;-78
2023/03/26 06:54:26;;;;;;;;;;;;;;;6.62;100.00;99406.47;4972579;28;19914;-77
2023/03/26 06:56:58;;;;;;;;;;;;;;;6.66;100.00;99407.84;4953589;29;19914;-78
2023/03/26 06:59:28;;;;;;;;;;;;;;;6.68;100.00;99419.03;4972141;28;19929;-78
2023/03/26 07:02:14;;;;;;;;;;;;;;;6.69;100.00;99426.75;4973725;28;19922;-78
2023/03/26 07:05:00;;;;;;;;;;;;;;;6.73;100.00;99439.59;4975518;28;19914;-78
2023/03/26 07:07:47;;;;;;;;;;;;;;;6.76;100.00;99441.94;4973922;28;19914;-78
2023/03/26 07:10:35;;;;;;;;;;;;;;;6.80;100.00;99459.88;4970977;28;19926;-79
2023/03/26 07:13:11;;;;;;;;;;;;;;;6.82;100.00;99454.50;4948817;28;19913;-78
2023/03/26 07:15:59;;;;;;;;;;;;;;;6.83;100.00;99467.47;4931372;28;19993;-78
2023/03/26 07:18:54;;;;;;;;;;;;;;;6.85;100.00;99477.84;4942633;28;19936;-78
2023/03/26 07:21:26;;;;;;;;;;;;;;;6.87;100.00;99480.31;4971343;28;20009;-78
2023/03/26 07:23:55;;;;;;;;;;;;;;;6.89;100.00;99491.53;4948671;28;19965;-78
2023/03/26 07:26:46;;;;;;;;;;;;;;;6.91;100.00;99507.97;4956444;28;19914;-79
2023/03/26 07:29:34;;;;;;;;;;;;;;;6.90;100.00;99509.78;4961582;28;19914;-78
2023/03/26 07:32:24;;;;;;;;;;;;;;;6.95;100.00;99520.69;4954135;28;19937;-78
2023/03/26 07:35:00;;;;;;;;;;;;;;;6.99;100.00;99530.91;4967386;28;19914;-78
2023/03/26 07:38:10;;;;;;;;;;;;;;;7.02;100.00;99541.13;4901646;29;19959;-78
2023/03/26 07:41:00;;;;;;;;;;;;;;;6.98;100.00;99545.00;4964605;28;19977;-78
2023/03/26 07:43:32;;;;;;;;;;;;;;;7.00;100.00;99553.56;4968871;28;19918;-78
2023/03/26 07:46:26;;;;;;;;;;;;;;;7.03;100.00;99566.41;4970243;28;19926;-78
2023/03/26 07:49:12;;;;;;;;;;;;;;;7.07;100.00;99566.00;4957071;28;19922;-78
2023/03/26 07:52:17;;;;;;;;;;;;;;;7.13;100.00;99571.66;4932635;29;19914;-78
2023/03/26 07:55:20;;;;;;;;;;;;;;;7.19;100.00;99590.31;4884666;29;19915;-78
2023/03/26 07:58:23;;;;;;;;;;;;;;;7.23;100.00;99587.41;4955270;28;20410;-78
2023/03/26 08:01:24;;;;;;;;;;;;;;;7.41;100.00;99592.69;4956601;28;19925;-78
2023/03/26 08:04:26;;;;;;;;;;;;;;;7.49;100.00;99598.06;4955967;28;19918;-77
2023/03/26 08:07:27;;;;;;;;;;;;;;;7.52;100.00;99607.47;4924662;28;19922;-78
2023/03/26 08:10:36;;;;;;;;;;;;;;;7.49;100.00;99627.00;4953950;28;20012;-78
2023/03/26 08:13:18;;;;;;;;;;;;;;;7.41;100.00;99632.16;4921536;29;19918;-78
2023/03/26 08:15:54;;;;;;;;;;;;;;;7.35;100.00;99640.59;4966979;28;19914;-78
2023/03/26 08:18:27;;;;;;;;;;;;;;;7.36;100.00;99645.72;4936158;28;19918;-78
2023/03/26 08:21:12;;;;;;;;;;;;;;;7.42;100.00;99654.84;4955800;28;20021;-78
2023/03/26 08:23:51;;;;;;;;;;;;;;;7.43;100.00;99648.63;4943870;28;19921;-78
2023/03/26 08:26:26;;;;;;;;;;;;;;;7.38;100.00;99656.09;4948652;28;19910;-78
2023/03/26 08:29:03;;;;;;;;;;;;;;;7.33;100.00;99664.41;4969614;28;19918;-78
2023/03/26 08:31:34;;;;;;;;;;;;;;;7.32;100.00;99668.84;4951532;28;20341;-78
2023/03/26 08:34:03;;;;;;;;;;;;;;;7.31;100.00;99679.53;4948421;28;19914;-78
2023/03/26 08:36:32;;;;;;;;;;;;;;;7.32;100.00;99689.88;4966045;28;19925;-78
2023/03/26 08:39:00;;;;;;;;;;;;;;;7.27;100.00;99693.91;4963709;28;19940;-78
2023/03/26 08:41:41;;;;;;;;;;;;;;;7.24;100.00;99702.91;4953932;28;20009;-78
2023/03/26 08:44:08;;;;;;;;;;;;;;;7.24;100.00;99713.41;4950756;28;20383;-77
2023/03/26 08:46:55;;;;;;;;;;;;;;;7.25;100.00;99722.94;4937912;28;20001;-78
2023/03/26 08:49:41;;;;;;;;;;;;;;;7.19;100.00;99732.25;4959348;28;20362;-78
2023/03/26 08:52:24;;;;;;;;;;;;;;;7.15;100.00;99749.25;4936021;28;20069;-78
2023/03/26 08:55:03;;;;;;;;;;;;;;;7.15;100.00;99751.06;4964923;28;19922;-77
2023/03/26 08:57:42;;;;;;;;;;;;;;;7.12;100.00;99765.28;4935980;28;19941;-78
2023/03/26 09:00:30;;;;;;;;;;;;;;;7.12;100.00;99754.78;4970153;28;19976;-78
2023/03/26 09:03:19;;;;;;;;;;;;;;;7.18;100.00;99775.25;4953393;28;19914;-78
2023/03/26 09:06:06;;;;;;;;;;;;;;;7.27;100.00;99770.13;4954415;28;19914;-77
2023/03/26 09:08:55;;;;;;;;;;;;;;;7.23;100.00;99782.72;4950466;28;19914;-78
2023/03/26 09:11:44;;;;;;;;;;;;;;;7.25;100.00;99791.28;4953074;28;19918;-78
2023/03/26 09:14:49;;;;;;;;;;;;;;;7.30;100.00;99796.97;4965050;28;19914;-78
2023/03/26 09:17:18;;;;;;;;;;;;;;;7.38;100.00;99812.06;4914447;29;19926;-78
2023/03/26 09:19:57;;;;;;;;;;;;;;;7.49;100.00;99813.69;4945618;28;19962;-79
2023/03/26 09:22:30;;;;;;;;;;;;;;;7.60;100.00;99827.69;4954007;28;19918;-78
2023/03/26 09:25:12;;;;;;;;;;;;;;;7.67;100.00;99832.25;4949600;28;19917;-78
2023/03/26 09:28:00;;;;;;;;;;;;;;;7.74;100.00;99843.00;4972458;28;19996;-78
2023/03/26 09:30:42;;;;;;;;;;;;;;;7.71;100.00;99851.19;4970337;28;20009;-77
2023/03/26 09:33:15;;;;;;;;;;;;;;;7.64;100.00;99852.72;4934077;28;19942;-78
2023/03/26 09:36:00;;;;;;;;;;;;;;;7.53;100.00;99859.78;4948786;28;20315;-77
2023/03/26 09:38:52;;;;;;;;;;;;;;;7.44;100.00;99871.97;4967058;28;19924;-78
2023/03/26 09:41:55;;;;;;;;;;;;;;;7.48;100.00;99877.78;4951104;28;19921;-78
2023/03/26 09:44:43;;;;;;;;;;;;;;;7.54;100.00;99876.41;4966876;28;20294;-78
2023/03/26 09:47:22;;;;;;;;;;;;;;;7.57;100.00;99881.38;4936355;28;19918;-78
2023/03/26 09:49:51;;;;;;;;;;;;;;;7.63;100.00;99890.53;4947231;28;19914;-78
2023/03/26 09:52:32;;;;;;;;;;;;;;;7.69;100.00;99893.41;4964272;28;20000;-77
2023/03/26 09:55:09;;;;;;;;;;;;;;;7.77;100.00;99899.81;4960109;28;20367;-77
2023/03/26 09:57:42;;;;;;;;;;;;;;;7.82;100.00;99898.41;4922541;28;19925;-78
2023/03/26 10:00:17;;;;;;;;;;;;;;;7.76;100.00;99913.91;4952112;28;19917;-78
2023/03/26 10:02:54;;;;;;;;;;;;;;;7.76;100.00;99920.00;4947255;28;19914;-78
2023/03/26 10:05:26;;;;;;;;;;;;;;;7.79;100.00;99930.25;4939652;28;19918;-78
2023/03/26 10:07:57;;;;;;;;;;;;;;;7.84;100.00;99935.09;4944749;28;19914;-78
2023/03/26 10:10:47;;;;;;;;;;;;;;;7.80;100.00;99942.44;4964740;28;19914;-78
2023/03/26 10:13:17;;;;;;;;;;;;;;;7.90;100.00;99939.00;4955607;28;19914;-78
2023/03/26 10:15:46;;;;;;;;;;;;;;;8.03;100.00;99955.31;4955074;28;20414;-78
2023/03/26 10:18:17;;;;;;;;;;;;;;;8.17;100.00;99961.13;4923577;29;19922;-78
2023/03/26 10:20:51;;;;;;;;;;;;;;;8.30;100.00;99963.44;4970630;28;19970;-78
2023/03/26 10:23:26;;;;;;;;;;;;;;;8.28;100.00;99966.22;4945597;28;19920;-78
2023/03/26 10:26:03;;;;;;;;;;;;;;;8.23;100.00;99984.25;4957913;28;20367;-78
2023/03/26 10:28:30;;;;;;;;;;;;;;;8.24;100.00;99982.44;4944035;28;19917;-78
2023/03/26 10:30:59;;;;;;;;;;;;;;;8.25;100.00;99978.84;4958795;28;19918;-78
2023/03/26 10:33:53;;;;;;;;;;;;;;;8.24;100.00;99978.00;4953567;28;19921;-78
2023/03/26 10:36:36;;;;;;;;;;;;;;;8.38;100.00;99989.91;4970153;28;20012;-78
2023/03/26 10:39:40;;;;;;;;;;;;;;;8.42;100.00;100001.84;4957795;28;19926;-78
2023/03/26 10:42:27;;;;;;;;;;;;;;;8.40;100.00;99998.50;4916459;29;20054;-78
2023/03/26 10:45:09;;;;;;;;;;;;;;;8.38;100.00;100008.34;4951754;28;20285;-78
2023/03/26 10:47:58;;;;;;;;;;;;;;;8.39;100.00;100031.06;4941357;28;19918;-77
2023/03/26 10:50:50;;;;;;;;;;;;;;;8.41;100.00;100029.13;4970946;28;19929;-77
2023/03/26 10:53:43;;;;;;;;;;;;;;;8.48;100.00;100039.94;4960462;28;20366;-78
2023/03/26 10:56:27;;;;;;;;;;;;;;;8.64;100.00;100036.75;4941230;28;19957;-78
2023/03/26 10:58:57;;;;;;;;;;;;;;;8.84;100.00;100041.97;4974323;28;20306;-78
2023/03/26 11:01:26;;;;;;;;;;;;;;;8.89;100.00;100037.09;4971089;28;20016;-78
2023/03/26 11:04:00;;;;;;;;;;;;;;;9.01;100.00;100052.75;4956452;28;20382;-78
2023/03/26 11:06:37;;;;;;;;;;;;;;;9.01;100.00;100055.38;4964519;28;19918;-78
2023/03/26 11:09:17;;;;;;;;;;;;;;;8.85;100.00;100054.19;4941021;28;19914;-79
2023/03/26 11:12:02;;;;;;;;;;;;;;;8.75;100.00;100067.38;4941500;28;19956;-78
2023/03/26 11:14:41;;;;;;;;;;;;;;;8.72;100.00;100072.09;4947348;28;19924;-78
2023/03/26 11:17:33;;;;;;;;;;;;;;;8.69;100.00;100079.31;4972805;28;19921;-78
2023/03/26 11:20:07;;;;;;;;;;;;;;;8.88;100.00;100093.44;4954421;28;20009;-78
2023/03/26 11:22:43;;;;;;;;;;;;;;;9.19;100.00;100089.72;4956489;28;19914;-78
2023/03/26 11:25:31;;;;;;;;;;;;;;;9.41;100.00;100104.34;4956832;28;19922;-78
2023/03/26 11:28:08;;;;;;;;;;;;;;;9.50;100.00;100117.66;4940189;28;19962;-78
2023/03/26 11:30:38;;;;;;;;;;;;;;;9.64;100.00;100114.56;4956673;28;19914;-78
2023/03/26 11:33:10;;;;;;;;;;;;;;;9.73;100.00;100119.94;4954056;28;19925;-78
2023/03/26 11:35:42;;;;;;;;;;;;;;;9.67;100.00;100123.97;4957105;28;19956;-78
2023/03/26 11:38:20;;;;;;;;;;;;;;;9.75;100.00;100129.34;4968462;28;19914;-78
2023/03/26 11:40:50;;;;;;;;;;;;;;;9.77;100.00;100134.50;4952960;29;20380;-78
2023/03/26 11:43:35;;;;;;;;;;;;;;;9.80;100.00;100134.19;4951879;28;19914;-78
2023/03/26 11:46:06;;;;;;;;;;;;;;;9.84;100.00;100143.50;4956162;28;19918;-78
2023/03/26 11:48:40;;;;;;;;;;;;;;;9.71;100.00;100143.84;4943612;28;19966;-78
2023/03/26 11:51:33;;;;;;;;;;;;;;;9.73;100.00;100148.97;4955335;28;19913;-78
2023/03/26 11:54:02;;;;;;;;;;;;;;;9.84;100.00;100161.97;4951327;28;20355;-78
2023/03/26 11:56:52;;;;;;;;;;;;;;;9.94;100.00;100159.25;4968986;28;19925;-78
2023/03/26 11:59:30;;;;;;;;;;;;;;;9.99;100.00;100164.09;4947951;28;19926;-78
2023/03/26 12:02:04;;;;;;;;;;;;;;;10.01;100.00;100165.63;4948127;29;19918;-78
2023/03/26 12:04:35;;;;;;;;;;;;;;;10.04;100.00;100178.53;4938111;29;19919;-78
2023/03/26 12:07:08;;;;;;;;;;;;;;;10.05;100.00;100182.00;4952569;29;19918;-78
2023/03/26 12:09:35;;;;;;;;;;;;;;;10.20;100.00;100199.97;4949227;29;20005;-78
2023/03/26 12:12:06;;;;;;;;;;;;;;;10.25;100.00;100201.22;4953039;29;19949;-78
2023/03/26 12:14:42;;;;;;;;;;;;;;;10.23;100.00;100216.38;4927584;29;19921;-78
2023/03/26 12:17:13;;;;;;;;;;;;;;;10.28;100.00;100216.78;4953795;29;19918;-78
2023/03/26 12:19:44;;;;;;;;;;;;;;;10.41;100.00;100212.94;4949008;29;20303;-78
2023/03/26 12:22:28;;;;;;;;;;;;;;;10.34;100.00;100215.34;4930289;29;19975;-78
2023/03/26 12:25:15;;;;;;;;;;;;;;;10.36;100.00;100204.63;4931256;29;19914;-78
2023/03/26 12:27:47;;;;;;;;;;;;;;;10.42;100.00;100206.66;4936055;28;20419;-78
2023/03/26 12:30:21;;;;;;;;;;;;;;;10.60;100.00;100219.94;4950920;29;19954;-78
2023/03/26 12:32:53;;;;;;;;;;;;;;;10.40;100.00;100221.84;4923717;29;20323;-78
2023/03/26 12:35:25;;;;;;;;;;;;;;;10.24;100.00;100230.44;4927393;29;19925;-77
2023/03/26 12:37:54;;;;;;;;;;;;;;;10.04;100.00;100236.63;4901496;29;20448;-78
2023/03/26 12:40:34;;;;;;;;;;;;;;;9.93;100.00;100237.66;4953628;29;19923;-78
2023/03/26 12:43:03;;;;;;;;;;;;;;;9.87;100.00;100254.06;4919790;29;19915;-78
2023/03/26 12:45:40;;;;;;;;;;;;;;;10.11;100.00;100257.19;4933196;29;19926;-78
2023/03/26 12:48:10;;;;;;;;;;;;;;;10.26;100.00;100249.59;4931549;29;19942;-78
2023/03/26 12:50:40;;;;;;;;;;;;;;;10.41;100.00;100252.56;4946618;29;19922;-78
2023/03/26 12:53:17;;;;;;;;;;;;;;;10.64;100.00;100260.94;4937355;29;20005;-78
2023/03/26 12:55:54;;;;;;;;;;;;;;;10.94;100.00;100259.91;4952623;29;19918;-78
2023/03/26 12:58:25;;;;;;;;;;;;;;;11.27;100.00;100271.59;4950635;28;19940;-78
2023/03/26 13:00:56;;;;;;;;;;;;;;;11.32;100.00;100278.25;4972157;28;19972;-78
2023/03/26 13:03:36;;;;;;;;;;;;;;;11.17;100.00;100268.19;4971999;28;19925;-78
2023/03/26 13:06:09;;;;;;;;;;;;;;;10.79;100.00;100281.56;4955821;28;20009;-78
2023/03/26 13:08:57;;;;;;;;;;;;;;;10.45;100.00;100288.28;4973327;28;19972;-78
2023/03/26 13:11:33;;;;;;;;;;;;;;;10.27;100.00;100298.81;4946769;28;19914;-78
2023/03/26 13:14:05;;;;;;;;;;;;;;;10.33;100.00;100292.09;4972919;28;19997;-78
2023/03/26 13:16:41;;;;;;;;;;;;;;;10.44;100.00;100305.13;4956476;28;19914;-78
2023/03/26 13:19:10;;;;;;;;;;;;;;;10.32;100.00;100307.09;4969163;28;20270;-78
2023/03/26 13:21:38;;;;;;;;;;;;;;;10.38;100.00;100313.63;4954689;28;20390;-78
2023/03/26 13:24:28;;;;;;;;;;;;;;;10.62;100.00;100307.81;4960151;28;19957;-78
2023/03/26 13:27:10;;;;;;;;;;;;;;;10.88;100.00;100316.84;4964937;28;19918;-77
2023/03/26 13:29:40;;;;;;;;;;;;;;;10.59;100.00;100318.69;4966459;28;19913;-79
2023/03/26 13:32:09;;;;;;;;;;;;;;;10.33;100.00;100331.72;4937450;28;19914;-76
2023/03/26 13:34:40;;;;;;;;;;;;;;;10.07;100.00;100337.66;4969801;28;20247;-76
2023/03/26 13:37:19;;;;;;;;;;;;;;;9.88;100.00;100344.66;4951619;28;19956;-78